Time;durP1;ratioP1;P1;durP2;ratioP2;P2;SDS_P1;SDS_P2;PMS_P1;PMS_P2;Temp;Humidity;BMP_temperature;BMP_pressure;BME280_temperature;BME280_humidity;BME280_pressure;Samples;Min_cycle;Max_cycle;Signal;HPM_P1;HPM_P2
2023/06/28 00:01:00;;;;;;;;;;;;;;;14.25;41.47;95786.84;4989046;28;20409;-74
2023/06/28 00:03:26;;;;;;;;;;;;;;;14.00;42.03;95792.66;5005492;28;20007;-72
2023/06/28 00:05:51;;;;;;;;;;;;;;;13.90;42.15;95793.00;5004651;28;19921;-74
2023/06/28 00:08:16;;;;;;;;;;;;;;;14.07;42.02;95791.66;5023518;28;20281;-72
2023/06/28 00:10:41;;;;;;;;;;;;;;;14.14;41.63;95786.34;5002872;28;19967;-73
2023/06/28 00:13:07;;;;;;;;;;;;;;;14.15;41.48;95789.88;5022023;28;19917;-75
2023/06/28 00:15:32;;;;;;;;;;;;;;;14.08;41.46;95792.50;4988544;28;19913;-74
2023/06/28 00:17:57;;;;;;;;;;;;;;;13.88;42.34;95795.88;5004509;28;19921;-72
2023/06/28 00:20:22;;;;;;;;;;;;;;;13.91;41.86;95790.09;5019961;28;20011;-72
2023/06/28 00:22:49;;;;;;;;;;;;;;;13.65;42.69;95790.72;4988497;28;19913;-72
2023/06/28 00:25:14;;;;;;;;;;;;;;;13.62;42.77;95791.94;5023162;28;19913;-71
2023/06/28 00:27:40;;;;;;;;;;;;;;;13.73;42.34;95797.78;5021064;28;19963;-73
2023/06/28 00:30:05;;;;;;;;;;;;;;;13.67;42.73;95794.84;5004906;28;19921;-72
2023/06/28 00:32:31;;;;;;;;;;;;;;;13.80;42.33;95793.28;5020976;28;19976;-73
2023/06/28 00:34:56;;;;;;;;;;;;;;;13.73;42.46;95798.59;5004676;28;19917;-73
2023/06/28 00:37:21;;;;;;;;;;;;;;;13.63;42.51;95792.78;5003171;28;20450;-72
2023/06/28 00:39:47;;;;;;;;;;;;;;;13.49;42.77;95798.00;5023331;28;19996;-72
2023/06/28 00:42:12;;;;;;;;;;;;;;;13.38;43.35;95796.66;5000347;28;19952;-73
2023/06/28 00:44:37;;;;;;;;;;;;;;;13.60;42.59;95793.16;5022174;28;19924;-71
2023/06/28 00:47:03;;;;;;;;;;;;;;;13.82;42.14;95793.94;5024043;28;19921;-71
2023/06/28 00:49:29;;;;;;;;;;;;;;;13.86;41.68;95799.72;5007538;28;19959;-72
2023/06/28 00:51:54;;;;;;;;;;;;;;;13.84;41.87;95805.28;5007958;28;20293;-72
2023/06/28 00:54:20;;;;;;;;;;;;;;;13.87;41.98;95794.16;5024255;28;19924;-74
2023/06/28 00:56:45;;;;;;;;;;;;;;;13.95;42.05;95798.59;5007444;28;20114;-74
2023/06/28 00:59:10;;;;;;;;;;;;;;;13.94;43.10;95796.94;5007748;28;19917;-72
2023/06/28 01:01:36;;;;;;;;;;;;;;;13.95;41.87;95806.63;5006396;28;19920;-72
2023/06/28 01:04:05;;;;;;;;;;;;;;;14.03;41.91;95814.50;5024190;28;19971;-72
2023/06/28 01:06:31;;;;;;;;;;;;;;;14.07;42.08;95802.38;5007925;28;19993;-73
2023/06/28 01:08:56;;;;;;;;;;;;;;;13.97;42.66;95809.09;5007455;28;20014;-73
2023/06/28 01:11:21;;;;;;;;;;;;;;;14.15;42.49;95806.78;5007270;28;19921;-72
2023/06/28 01:13:47;;;;;;;;;;;;;;;14.15;42.09;95801.41;5024607;28;19927;-75
2023/06/28 01:16:12;;;;;;;;;;;;;;;14.10;41.99;95805.69;5025504;28;19928;-73
2023/06/28 01:18:37;;;;;;;;;;;;;;;13.98;42.16;95803.56;5024548;28;19967;-72
2023/06/28 01:21:04;;;;;;;;;;;;;;;14.07;42.12;95807.72;5007052;28;19917;-71
2023/06/28 01:23:29;;;;;;;;;;;;;;;14.06;42.07;95806.09;5023511;28;19975;-73
2023/06/28 01:25:54;;;;;;;;;;;;;;;14.00;42.28;95804.19;4989902;28;20324;-71
2023/06/28 01:28:20;;;;;;;;;;;;;;;13.78;42.52;95801.53;5007177;28;19917;-72
2023/06/28 01:30:48;;;;;;;;;;;;;;;13.89;42.24;95802.03;4989489;28;20313;-72
2023/06/28 01:33:14;;;;;;;;;;;;;;;13.90;42.31;95809.06;5022331;28;20507;-74
2023/06/28 01:35:39;;;;;;;;;;;;;;;13.87;42.29;95810.22;5007075;28;19961;-73
2023/06/28 01:38:04;;;;;;;;;;;;;;;14.07;41.86;95812.25;5007645;28;19994;-72
2023/06/28 01:40:35;;;;;;;;;;;;;;;13.92;42.32;95813.19;4992662;28;19968;-72
2023/06/28 01:43:00;;;;;;;;;;;;;;;13.84;42.46;95810.63;5007924;28;19939;-72
2023/06/28 01:45:26;;;;;;;;;;;;;;;13.78;42.50;95817.59;5006729;28;20630;-73
2023/06/28 01:47:51;;;;;;;;;;;;;;;13.83;42.72;95814.31;5007219;28;20297;-74
2023/06/28 01:50:17;;;;;;;;;;;;;;;13.66;42.65;95814.59;5005799;28;19971;-72
2023/06/28 01:52:43;;;;;;;;;;;;;;;13.65;42.91;95820.97;5007025;28;19909;-71
2023/06/28 01:55:08;;;;;;;;;;;;;;;13.75;42.74;95817.13;5004623;28;20362;-73
2023/06/28 01:57:33;;;;;;;;;;;;;;;13.85;42.40;95820.31;5005120;28;20283;-72
2023/06/28 01:59:59;;;;;;;;;;;;;;;14.00;42.15;95819.44;5024770;28;19917;-72
2023/06/28 02:02:24;;;;;;;;;;;;;;;13.97;42.34;95814.47;5023517;28;19921;-72
2023/06/28 02:04:50;;;;;;;;;;;;;;;14.03;41.83;95813.66;5022911;28;19932;-73
2023/06/28 02:07:15;;;;;;;;;;;;;;;14.04;41.94;95808.13;5007303;28;20114;-73
2023/06/28 02:09:40;;;;;;;;;;;;;;;14.06;42.04;95818.63;5003614;28;20362;-72
2023/06/28 02:12:06;;;;;;;;;;;;;;;14.03;42.20;95822.53;5025427;28;19935;-74
2023/06/28 02:14:31;;;;;;;;;;;;;;;14.02;42.68;95817.38;5024795;28;19917;-74
2023/06/28 02:16:56;;;;;;;;;;;;;;;13.88;42.73;95816.41;5006444;28;20282;-73
2023/06/28 02:19:21;;;;;;;;;;;;;;;13.49;44.48;95814.03;5024585;28;19959;-71
2023/06/28 02:21:46;;;;;;;;;;;;;;;13.36;44.63;95814.72;5006665;28;20000;-72
2023/06/28 02:24:12;;;;;;;;;;;;;;;13.11;45.73;95811.59;5022004;28;19943;-73
2023/06/28 02:26:37;;;;;;;;;;;;;;;13.28;45.30;95809.50;4988923;28;20450;-73
2023/06/28 02:29:02;;;;;;;;;;;;;;;13.23;45.88;95799.41;5023640;28;19936;-72
2023/06/28 02:31:28;;;;;;;;;;;;;;;13.23;45.66;95803.91;5022818;28;19913;-73
2023/06/28 02:33:53;;;;;;;;;;;;;;;12.78;46.77;95811.00;5023536;28;19976;-73
2023/06/28 02:36:18;;;;;;;;;;;;;;;13.08;46.29;95804.78;5005397;28;19921;-73
2023/06/28 02:38:43;;;;;;;;;;;;;;;12.77;46.86;95808.53;5023489;28;19917;-72
2023/06/28 02:41:10;;;;;;;;;;;;;;;12.82;47.19;95808.81;5024924;28;19913;-74
2023/06/28 02:43:35;;;;;;;;;;;;;;;12.88;46.90;95810.72;5006260;28;19963;-74
2023/06/28 02:46:00;;;;;;;;;;;;;;;12.95;47.21;95807.31;5023842;28;19913;-73
2023/06/28 02:48:25;;;;;;;;;;;;;;;12.95;46.77;95813.47;5025050;28;19917;-72
2023/06/28 02:50:51;;;;;;;;;;;;;;;12.87;47.39;95822.44;5020992;28;20368;-74
2023/06/28 02:53:16;;;;;;;;;;;;;;;12.82;47.64;95822.16;5023631;28;19971;-75
2023/06/28 02:55:41;;;;;;;;;;;;;;;12.89;47.72;95820.38;5006216;28;19921;-72
2023/06/28 02:58:06;;;;;;;;;;;;;;;12.85;47.52;95824.44;5005899;28;19924;-72
2023/06/28 03:00:32;;;;;;;;;;;;;;;12.92;47.27;95825.34;5024140;28;19952;-74
2023/06/28 03:02:57;;;;;;;;;;;;;;;12.84;47.70;95821.97;5021408;28;19948;-74
2023/06/28 03:05:22;;;;;;;;;;;;;;;12.83;47.90;95825.66;5023005;28;20340;-72
2023/06/28 03:07:47;;;;;;;;;;;;;;;12.64;48.37;95820.72;5006562;28;19936;-72
2023/06/28 03:10:13;;;;;;;;;;;;;;;12.78;48.23;95826.19;4986410;28;20000;-72
2023/06/28 03:12:38;;;;;;;;;;;;;;;12.54;48.94;95836.19;5006509;28;19913;-74
2023/06/28 03:15:03;;;;;;;;;;;;;;;12.46;48.82;95828.28;5005328;28;19917;-73
2023/06/28 03:17:28;;;;;;;;;;;;;;;12.78;47.92;95824.38;5001862;28;19978;-73
2023/06/28 03:19:54;;;;;;;;;;;;;;;12.76;48.31;95820.25;5004335;28;19975;-73
2023/06/28 03:22:19;;;;;;;;;;;;;;;12.58;48.61;95825.97;5022035;28;19921;-74
2023/06/28 03:24:44;;;;;;;;;;;;;;;12.79;48.34;95822.53;5023593;28;20353;-72
2023/06/28 03:27:09;;;;;;;;;;;;;;;12.62;48.38;95825.41;5003927;28;19974;-72
2023/06/28 03:29:34;;;;;;;;;;;;;;;12.72;48.55;95818.97;5022417;28;19928;-72
2023/06/28 03:32:00;;;;;;;;;;;;;;;12.69;48.68;95820.16;5023464;28;19924;-73
2023/06/28 03:34:25;;;;;;;;;;;;;;;12.74;48.56;95819.59;5023663;28;19928;-73
2023/06/28 03:36:50;;;;;;;;;;;;;;;12.80;48.16;95816.19;5023869;28;19925;-71
2023/06/28 03:39:18;;;;;;;;;;;;;;;12.65;48.22;95822.34;5023467;28;19917;-74
2023/06/28 03:41:43;;;;;;;;;;;;;;;13.02;47.84;95814.41;5019127;28;19924;-74
2023/06/28 03:44:08;;;;;;;;;;;;;;;12.56;48.69;95826.16;5019932;28;20366;-72
2023/06/28 03:46:33;;;;;;;;;;;;;;;12.58;48.39;95829.44;5022495;28;20360;-72
2023/06/28 03:48:59;;;;;;;;;;;;;;;12.43;49.16;95832.16;5023396;28;19925;-73
2023/06/28 03:51:24;;;;;;;;;;;;;;;12.34;49.20;95836.75;5023051;28;19921;-72
2023/06/28 03:53:49;;;;;;;;;;;;;;;12.66;48.50;95825.88;5022625;28;19917;-72
2023/06/28 03:56:14;;;;;;;;;;;;;;;13.05;47.69;95814.03;5004074;28;20008;-72
2023/06/28 03:58:40;;;;;;;;;;;;;;;13.16;46.75;95806.53;5022946;28;19920;-73
2023/06/28 04:01:05;;;;;;;;;;;;;;;13.39;45.60;95805.50;5003885;28;20426;-72
2023/06/28 04:03:31;;;;;;;;;;;;;;;13.58;45.00;95812.06;5021940;28;19929;-74
2023/06/28 04:05:56;;;;;;;;;;;;;;;13.74;44.81;95807.47;5005013;28;19913;-73
2023/06/28 04:08:21;;;;;;;;;;;;;;;13.86;45.04;95808.56;5023513;28;19925;-74
2023/06/28 04:10:46;;;;;;;;;;;;;;;13.51;46.06;95816.53;5020244;28;19973;-72
2023/06/28 04:13:11;;;;;;;;;;;;;;;13.63;46.26;95816.84;5021428;28;19921;-74
2023/06/28 04:15:37;;;;;;;;;;;;;;;13.70;45.01;95812.34;5004609;28;19917;-74
2023/06/28 04:18:02;;;;;;;;;;;;;;;14.10;44.04;95811.88;5003934;28;19920;-75
2023/06/28 04:20:27;;;;;;;;;;;;;;;14.05;44.11;95809.75;5004666;28;19920;-72
2023/06/28 04:22:53;;;;;;;;;;;;;;;13.76;45.02;95810.75;5006883;28;20458;-73
2023/06/28 04:25:18;;;;;;;;;;;;;;;13.82;44.51;95818.00;5007975;28;19920;-73
2023/06/28 04:27:43;;;;;;;;;;;;;;;14.05;44.23;95816.97;5026883;28;19913;-74
2023/06/28 04:30:09;;;;;;;;;;;;;;;14.18;43.52;95821.59;5026511;28;19927;-74
2023/06/28 04:32:34;;;;;;;;;;;;;;;14.34;42.83;95812.41;5027182;28;19924;-74
2023/06/28 04:34:59;;;;;;;;;;;;;;;14.46;42.52;95805.47;5008992;28;19920;-73
2023/06/28 04:37:28;;;;;;;;;;;;;;;14.45;42.50;95809.19;5025188;28;19979;-72
2023/06/28 04:39:54;;;;;;;;;;;;;;;14.50;41.82;95802.41;5023755;28;20449;-75
2023/06/28 04:42:19;;;;;;;;;;;;;;;14.51;41.82;95804.06;5000900;28;20366;-74
2023/06/28 04:44:46;;;;;;;;;;;;;;;14.59;42.09;95807.41;5027379;28;19913;-73
2023/06/28 04:47:15;;;;;;;;;;;;;;;14.64;41.97;95803.28;5008302;28;20338;-75
2023/06/28 04:49:40;;;;;;;;;;;;;;;14.41;42.51;95812.47;5026552;28;19913;-73
2023/06/28 04:52:06;;;;;;;;;;;;;;;14.38;42.34;95808.31;5025231;28;19921;-74
2023/06/28 04:54:31;;;;;;;;;;;;;;;14.39;42.32;95815.34;4991362;28;20004;-75
2023/06/28 04:56:56;;;;;;;;;;;;;;;14.54;42.52;95809.00;5026465;28;19955;-73
2023/06/28 04:59:21;;;;;;;;;;;;;;;14.32;43.20;95817.97;5025996;28;19913;-72
2023/06/28 05:01:47;;;;;;;;;;;;;;;14.25;43.27;95811.78;5007057;28;19952;-75
2023/06/28 05:04:12;;;;;;;;;;;;;;;14.44;42.90;95809.38;5026590;28;19921;-74
2023/06/28 05:06:37;;;;;;;;;;;;;;;14.46;43.18;95799.31;5025163;28;19917;-72
2023/06/28 05:09:02;;;;;;;;;;;;;;;14.64;42.80;95797.94;5026333;28;20381;-73
2023/06/28 05:11:28;;;;;;;;;;;;;;;14.82;41.90;95805.47;5005704;28;20286;-74
2023/06/28 05:13:53;;;;;;;;;;;;;;;14.68;42.13;95802.69;5007805;28;20006;-75
2023/06/28 05:16:18;;;;;;;;;;;;;;;14.90;41.67;95804.47;5008105;28;20366;-73
2023/06/28 05:18:43;;;;;;;;;;;;;;;14.72;41.48;95801.28;5024435;28;19942;-73
2023/06/28 05:21:09;;;;;;;;;;;;;;;14.92;40.52;95795.19;5022617;28;19943;-74
2023/06/28 05:23:34;;;;;;;;;;;;;;;14.68;41.23;95799.19;5022550;28;19917;-74
2023/06/28 05:25:59;;;;;;;;;;;;;;;14.97;40.64;95808.84;5003751;28;19916;-74
2023/06/28 05:28:25;;;;;;;;;;;;;;;15.13;40.70;95805.97;5024279;28;19921;-72
2023/06/28 05:30:51;;;;;;;;;;;;;;;15.18;40.23;95804.34;5024948;28;20377;-75
2023/06/28 05:33:16;;;;;;;;;;;;;;;15.18;40.24;95803.50;5025829;28;20004;-74
2023/06/28 05:35:41;;;;;;;;;;;;;;;15.11;40.48;95803.50;5025024;28;20017;-73
2023/06/28 05:38:06;;;;;;;;;;;;;;;15.46;39.50;95806.03;5025348;28;19931;-73
2023/06/28 05:40:32;;;;;;;;;;;;;;;15.63;38.99;95804.84;5025590;28;19959;-76
2023/06/28 05:42:58;;;;;;;;;;;;;;;15.45;39.51;95806.22;5005584;28;20405;-74
2023/06/28 05:45:26;;;;;;;;;;;;;;;15.34;40.29;95808.47;5023477;28;20436;-73
2023/06/28 05:47:52;;;;;;;;;;;;;;;15.36;39.42;95803.75;5025290;28;20220;-73
2023/06/28 05:50:17;;;;;;;;;;;;;;;15.34;39.89;95811.16;5006186;28;19920;-74
2023/06/28 05:52:43;;;;;;;;;;;;;;;15.44;39.66;95812.63;5005286;28;20366;-76
2023/06/28 05:55:08;;;;;;;;;;;;;;;15.54;39.47;95807.69;5022637;28;20058;-73
2023/06/28 05:57:34;;;;;;;;;;;;;;;15.64;39.16;95812.69;5024385;28;19967;-75
2023/06/28 05:59:59;;;;;;;;;;;;;;;15.23;40.84;95812.59;5006776;28;20015;-73
2023/06/28 06:02:27;;;;;;;;;;;;;;;15.74;39.27;95821.13;5000834;28;20316;-73
2023/06/28 06:04:52;;;;;;;;;;;;;;;15.99;38.72;95814.31;5000872;28;20019;-75
2023/06/28 06:07:17;;;;;;;;;;;;;;;15.95;39.51;95813.09;5019149;28;19948;-70
2023/06/28 06:09:42;;;;;;;;;;;;;;;16.29;37.68;95810.34;5003721;28;19932;-69
2023/06/28 06:12:08;;;;;;;;;;;;;;;16.13;39.59;95815.97;5023598;28;19928;-69
2023/06/28 06:14:33;;;;;;;;;;;;;;;16.22;39.26;95816.56;5021613;28;20417;-70
2023/06/28 06:16:58;;;;;;;;;;;;;;;16.45;38.04;95807.25;5022778;28;19956;-69
2023/06/28 06:19:24;;;;;;;;;;;;;;;16.60;37.52;95803.47;5022220;28;20384;-69
2023/06/28 06:21:49;;;;;;;;;;;;;;;16.59;36.91;95804.53;5022647;28;19921;-69
2023/06/28 06:24:14;;;;;;;;;;;;;;;16.62;36.85;95801.41;5021624;28;19932;-69
2023/06/28 06:26:39;;;;;;;;;;;;;;;16.70;35.47;95803.03;5018504;28;19956;-69
2023/06/28 06:29:05;;;;;;;;;;;;;;;16.72;35.10;95801.78;5019910;28;20463;-69
2023/06/28 06:31:30;;;;;;;;;;;;;;;16.71;35.29;95799.31;5021870;28;19917;-69
2023/06/28 06:34:01;;;;;;;;;;;;;;;16.50;35.23;95812.81;5020070;28;19917;-77
2023/06/28 06:36:29;;;;;;;;;;;;;;;16.95;34.50;95805.81;5002744;28;19952;-76
2023/06/28 06:38:55;;;;;;;;;;;;;;;17.34;34.96;95805.81;5002981;28;20441;-78
2023/06/28 06:41:21;;;;;;;;;;;;;;;17.41;33.78;95801.22;5001650;28;19928;-76
2023/06/28 06:43:46;;;;;;;;;;;;;;;17.50;33.31;95804.50;5021157;28;19917;-77
2023/06/28 06:46:11;;;;;;;;;;;;;;;17.28;34.21;95801.34;5002693;28;19921;-78
2023/06/28 06:48:37;;;;;;;;;;;;;;;17.64;33.39;95812.47;5022631;28;19923;-75
2023/06/28 06:51:04;;;;;;;;;;;;;;;17.58;32.85;95813.34;5022754;28;20012;-77
2023/06/28 06:53:29;;;;;;;;;;;;;;;15.87;35.24;95811.44;5003031;28;19989;-77
2023/06/28 06:55:55;;;;;;;;;;;;;;;16.92;33.76;95808.94;5002212;28;21164;-77
2023/06/28 06:58:20;;;;;;;;;;;;;;;15.42;35.35;95818.19;5004672;28;19925;-71
2023/06/28 07:00:48;;;;;;;;;;;;;;;15.43;36.19;95816.34;5018932;28;20427;-71
2023/06/28 07:03:14;;;;;;;;;;;;;;;15.87;35.63;95820.31;5015266;28;19924;-72
2023/06/28 07:05:39;;;;;;;;;;;;;;;14.91;37.54;95823.03;5021001;28;19956;-68
2023/06/28 07:08:04;;;;;;;;;;;;;;;16.60;34.69;95816.91;5023551;28;20782;-71
2023/06/28 07:10:29;;;;;;;;;;;;;;;17.19;33.26;95806.13;5021280;28;20000;-72
2023/06/28 07:12:55;;;;;;;;;;;;;;;17.53;32.85;95812.13;5013608;28;19972;-70
2023/06/28 07:15:20;;;;;;;;;;;;;;;17.36;32.74;95814.53;5000833;28;19972;-70
2023/06/28 07:17:46;;;;;;;;;;;;;;;17.22;33.20;95813.78;5021235;28;20497;-70
2023/06/28 07:20:11;;;;;;;;;;;;;;;16.76;34.28;95813.75;5020383;28;19917;-70
2023/06/28 07:22:36;;;;;;;;;;;;;;;16.66;33.92;95813.41;5019445;28;19927;-72
2023/06/28 07:25:03;;;;;;;;;;;;;;;16.78;34.71;95821.59;5018432;28;19968;-70
2023/06/28 07:27:28;;;;;;;;;;;;;;;17.18;33.85;95817.94;5017341;28;19951;-68
2023/06/28 07:29:54;;;;;;;;;;;;;;;17.65;33.97;95814.94;5021259;28;19924;-70
2023/06/28 07:32:20;;;;;;;;;;;;;;;17.60;34.31;95816.63;5021246;28;19933;-69
2023/06/28 07:34:45;;;;;;;;;;;;;;;17.80;32.99;95820.00;5021807;28;19993;-70
2023/06/28 07:37:11;;;;;;;;;;;;;;;17.99;33.12;95813.88;5021414;28;19925;-71
2023/06/28 07:39:36;;;;;;;;;;;;;;;18.31;32.65;95821.88;5019317;28;19923;-69
2023/06/28 07:42:01;;;;;;;;;;;;;;;18.28;32.23;95812.34;5017681;28;19924;-71
2023/06/28 07:44:26;;;;;;;;;;;;;;;18.19;32.97;95808.31;5019594;28;20531;-71
2023/06/28 07:46:52;;;;;;;;;;;;;;;18.33;32.88;95810.88;5022468;28;19951;-68
2023/06/28 07:49:17;;;;;;;;;;;;;;;17.96;32.87;95803.53;5023067;28;20884;-68
2023/06/28 07:51:42;;;;;;;;;;;;;;;17.96;30.71;95800.84;5021396;28;20012;-71
2023/06/28 07:54:08;;;;;;;;;;;;;;;18.00;29.34;95802.88;5019362;28;19920;-71
2023/06/28 07:56:33;;;;;;;;;;;;;;;17.99;29.46;95803.09;5019190;28;19925;-69
2023/06/28 07:59:01;;;;;;;;;;;;;;;18.11;30.87;95797.81;5018336;28;19925;-70
2023/06/28 08:01:26;;;;;;;;;;;;;;;17.59;32.25;95809.59;5020496;28;20027;-69
2023/06/28 08:03:51;;;;;;;;;;;;;;;17.47;31.60;95806.81;5002657;28;20000;-70
2023/06/28 08:06:16;;;;;;;;;;;;;;;17.72;31.52;95808.69;5018927;28;19921;-69
2023/06/28 08:08:42;;;;;;;;;;;;;;;17.90;31.00;95802.56;5018204;28;19948;-70
2023/06/28 08:11:07;;;;;;;;;;;;;;;18.13;31.75;95801.94;5017702;28;20008;-69
2023/06/28 08:13:32;;;;;;;;;;;;;;;18.65;29.32;95800.78;5020287;28;19921;-70
2023/06/28 08:15:58;;;;;;;;;;;;;;;17.40;32.35;95802.28;5018886;28;20039;-69
2023/06/28 08:18:23;;;;;;;;;;;;;;;18.16;31.24;95822.22;5019033;28;20508;-69
2023/06/28 08:20:48;;;;;;;;;;;;;;;17.88;31.37;95818.13;5019016;28;20074;-70
2023/06/28 08:23:14;;;;;;;;;;;;;;;18.03;30.49;95821.31;5003902;28;19917;-68
2023/06/28 08:25:39;;;;;;;;;;;;;;;18.09;32.00;95814.22;5018594;28;19917;-68
2023/06/28 08:28:04;;;;;;;;;;;;;;;19.25;29.16;95814.56;5017487;28;20475;-71
2023/06/28 08:30:30;;;;;;;;;;;;;;;18.82;30.12;95817.19;5017247;28;19917;-69
2023/06/28 08:32:55;;;;;;;;;;;;;;;17.95;30.57;95815.38;5019404;28;19928;-68
2023/06/28 08:35:20;;;;;;;;;;;;;;;19.11;30.28;95815.78;5022082;28;20562;-70
2023/06/28 08:37:45;;;;;;;;;;;;;;;19.40;27.77;95816.03;5019529;28;19925;-71
2023/06/28 08:40:11;;;;;;;;;;;;;;;19.00;30.71;95802.00;5014535;28;19924;-70
2023/06/28 08:42:36;;;;;;;;;;;;;;;20.04;25.81;95804.69;5001986;28;19947;-71
2023/06/28 08:45:02;;;;;;;;;;;;;;;20.29;26.07;95814.41;5020977;28;19916;-71
2023/06/28 08:47:29;;;;;;;;;;;;;;;18.71;29.07;95799.06;5021065;28;19924;-71
2023/06/28 08:49:54;;;;;;;;;;;;;;;19.77;28.11;95798.88;5002119;28;19917;-69
2023/06/28 08:52:19;;;;;;;;;;;;;;;20.23;28.17;95805.38;5019815;28;19917;-70
2023/06/28 08:54:44;;;;;;;;;;;;;;;20.65;28.05;95813.59;5003006;28;19943;-69
2023/06/28 08:57:10;;;;;;;;;;;;;;;20.00;28.04;95802.69;5021513;28;20552;-69
2023/06/28 08:59:35;;;;;;;;;;;;;;;19.55;29.75;95805.63;4999946;28;20301;-71
2023/06/28 09:02:01;;;;;;;;;;;;;;;20.01;28.33;95807.00;5001563;28;20006;-72
2023/06/28 09:04:26;;;;;;;;;;;;;;;19.96;28.57;95813.13;5020829;28;19932;-68
2023/06/28 09:06:51;;;;;;;;;;;;;;;18.86;29.76;95811.34;5018159;28;19925;-71
2023/06/28 09:09:17;;;;;;;;;;;;;;;17.90;32.11;95813.31;5025246;28;19913;-69
2023/06/28 09:11:42;;;;;;;;;;;;;;;18.69;32.30;95823.56;5024656;28;20217;-72
2023/06/28 09:14:08;;;;;;;;;;;;;;;18.95;31.73;95815.38;5023035;28;19927;-71
2023/06/28 09:16:33;;;;;;;;;;;;;;;18.90;31.91;95812.53;5007989;28;20162;-68
2023/06/28 09:18:58;;;;;;;;;;;;;;;18.89;32.26;95813.56;5022624;28;20382;-70
2023/06/28 09:21:27;;;;;;;;;;;;;;;17.77;34.50;95828.53;5022317;28;19921;-70
2023/06/28 09:23:52;;;;;;;;;;;;;;;17.62;34.09;95823.47;5024088;28;19917;-68
2023/06/28 09:26:18;;;;;;;;;;;;;;;17.49;35.33;95826.22;5004143;28;19979;-69
2023/06/28 09:28:43;;;;;;;;;;;;;;;17.65;33.63;95830.28;5023579;28;19920;-70
2023/06/28 09:31:08;;;;;;;;;;;;;;;18.07;32.85;95826.22;5022147;28;19996;-71
2023/06/28 09:33:33;;;;;;;;;;;;;;;17.33;33.77;95819.53;5023382;28;19948;-70
2023/06/28 09:35:59;;;;;;;;;;;;;;;17.93;33.73;95810.19;5022819;28;19919;-69
2023/06/28 09:38:25;;;;;;;;;;;;;;;17.73;34.65;95816.53;5022606;28;19921;-70
2023/06/28 09:40:57;;;;;;;;;;;;;;;16.99;35.81;95820.47;5020297;28;19917;-71
2023/06/28 09:43:23;;;;;;;;;;;;;;;18.79;32.20;95817.63;5022027;28;19943;-70
2023/06/28 09:45:48;;;;;;;;;;;;;;;18.68;32.43;95819.22;5023112;28;20345;-69
2023/06/28 09:48:13;;;;;;;;;;;;;;;18.34;32.40;95821.41;5001561;28;19921;-69
2023/06/28 09:50:38;;;;;;;;;;;;;;;18.20;34.51;95822.59;5022309;28;20031;-69
2023/06/28 09:53:10;;;;;;;;;;;;;;;17.59;34.44;95825.75;5018865;28;19916;-69
2023/06/28 09:55:54;;;;;;;;;;;;;;;17.17;34.97;95829.75;5021859;28;19917;-71
2023/06/28 09:58:19;;;;;;;;;;;;;;;17.72;32.87;95825.66;5005683;28;19925;-69
2023/06/28 10:00:48;;;;;;;;;;;;;;;18.61;32.80;95814.94;5002704;28;20085;-71
2023/06/28 10:03:14;;;;;;;;;;;;;;;19.42;30.42;95811.25;5023245;28;19921;-70
2023/06/28 10:05:40;;;;;;;;;;;;;;;19.16;30.03;95815.94;5023119;28;19917;-70
2023/06/28 10:08:14;;;;;;;;;;;;;;;19.07;30.79;95824.34;5003837;28;20057;-69
2023/06/28 10:10:40;;;;;;;;;;;;;;;18.91;30.21;95831.19;5021769;28;20077;-69
2023/06/28 10:13:09;;;;;;;;;;;;;;;19.04;30.06;95818.59;5023470;28;19917;-70
2023/06/28 10:15:36;;;;;;;;;;;;;;;19.46;29.40;95820.53;4999147;28;20385;-71
2023/06/28 10:18:02;;;;;;;;;;;;;;;20.06;29.34;95826.88;5001395;28;19929;-71
2023/06/28 10:20:27;;;;;;;;;;;;;;;19.90;28.93;95830.25;5019030;28;19917;-69
2023/06/28 10:22:52;;;;;;;;;;;;;;;19.26;29.00;95823.47;5005198;28;19921;-70
2023/06/28 10:25:17;;;;;;;;;;;;;;;19.04;30.02;95829.38;5003734;28;20007;-70
2023/06/28 10:27:44;;;;;;;;;;;;;;;20.00;29.56;95824.28;5003818;28;19948;-69
2023/06/28 10:30:10;;;;;;;;;;;;;;;19.46;28.97;95820.53;4988307;28;19917;-69
2023/06/28 10:32:35;;;;;;;;;;;;;;;19.72;29.42;95824.69;5022013;28;19917;-68
2023/06/28 10:35:00;;;;;;;;;;;;;;;19.61;27.69;95828.19;5005095;28;19917;-70
2023/06/28 10:37:25;;;;;;;;;;;;;;;19.41;29.17;95826.59;5003214;28;19927;-70
2023/06/28 10:39:51;;;;;;;;;;;;;;;19.74;28.64;95821.75;5021900;28;19947;-70
2023/06/28 10:42:16;;;;;;;;;;;;;;;19.63;29.52;95828.78;5022570;28;19927;-71
2023/06/28 10:44:51;;;;;;;;;;;;;;;19.82;28.44;95820.63;5005168;28;19971;-71
2023/06/28 10:47:16;;;;;;;;;;;;;;;18.61;30.72;95815.78;5021781;28;20012;-72
2023/06/28 10:49:42;;;;;;;;;;;;;;;19.68;30.16;95815.41;5020897;28;20093;-71
2023/06/28 10:52:14;;;;;;;;;;;;;;;19.50;30.64;95810.91;5003540;28;19917;-69
2023/06/28 10:54:39;;;;;;;;;;;;;;;19.76;29.74;95816.13;5021843;28;20349;-70
2023/06/28 10:57:08;;;;;;;;;;;;;;;19.70;28.22;95815.19;5021875;28;19921;-70
2023/06/28 10:59:35;;;;;;;;;;;;;;;18.80;29.37;95810.38;5020444;28;19916;-69
2023/06/28 11:02:01;;;;;;;;;;;;;;;20.17;28.13;95802.78;5023001;28;20557;-70
2023/06/28 11:04:26;;;;;;;;;;;;;;;20.63;28.62;95804.91;5022833;28;19931;-70
2023/06/28 11:07:12;;;;;;;;;;;;;;;19.87;28.61;95812.63;5021401;28;19925;-71
2023/06/28 11:09:37;;;;;;;;;;;;;;;20.69;27.66;95810.19;5006664;28;19956;-68
2023/06/28 11:12:08;;;;;;;;;;;;;;;20.95;26.82;95801.75;5014732;28;19955;-70
2023/06/28 11:14:34;;;;;;;;;;;;;;;21.38;28.04;95805.84;4997567;28;19925;-69
2023/06/28 11:17:01;;;;;;;;;;;;;;;20.68;29.04;95807.69;5021544;28;25327;-70
2023/06/28 11:19:26;;;;;;;;;;;;;;;20.50;29.08;95806.78;5004838;28;19924;-69
2023/06/28 11:21:55;;;;;;;;;;;;;;;19.85;29.30;95812.03;5014988;28;19925;-70
2023/06/28 11:24:33;;;;;;;;;;;;;;;19.41;29.19;95806.91;5022147;28;19943;-70
2023/06/28 11:26:58;;;;;;;;;;;;;;;19.78;30.03;95817.53;5017866;28;19995;-70
2023/06/28 11:29:23;;;;;;;;;;;;;;;19.37;28.75;95814.63;5004080;28;20012;-70
2023/06/28 11:31:52;;;;;;;;;;;;;;;19.29;29.17;95812.25;5004686;28;19959;-69
2023/06/28 11:34:18;;;;;;;;;;;;;;;19.10;28.71;95806.06;5019632;28;19952;-69
2023/06/28 11:36:44;;;;;;;;;;;;;;;19.57;29.52;95806.22;5020447;28;19999;-70
2023/06/28 11:39:16;;;;;;;;;;;;;;;19.85;28.99;95802.06;5022732;28;20517;-70
2023/06/28 11:41:42;;;;;;;;;;;;;;;19.35;30.24;95805.94;5020195;28;20377;-68
2023/06/28 11:44:07;;;;;;;;;;;;;;;21.00;27.95;95808.09;5004420;28;19921;-69
2023/06/28 11:46:33;;;;;;;;;;;;;;;20.98;28.96;95807.50;5022252;28;20005;-71
2023/06/28 11:49:00;;;;;;;;;;;;;;;19.98;29.91;95816.41;5020335;28;19921;-70
2023/06/28 11:51:25;;;;;;;;;;;;;;;19.92;29.59;95807.34;5020859;28;19952;-69
2023/06/28 11:53:50;;;;;;;;;;;;;;;19.89;30.39;95810.53;5017193;28;20014;-71
2023/06/28 11:56:15;;;;;;;;;;;;;;;20.65;29.37;95813.59;5021801;28;20350;-72
2023/06/28 11:58:41;;;;;;;;;;;;;;;21.34;28.76;95801.97;5018189;28;20361;-69
2023/06/28 12:01:07;;;;;;;;;;;;;;;21.86;27.19;95802.03;5017465;28;20500;-70
2023/06/28 12:03:33;;;;;;;;;;;;;;;21.17;28.45;95814.63;4995039;28;20502;-70
2023/06/28 12:05:58;;;;;;;;;;;;;;;20.75;29.04;95808.41;5001013;28;19952;-70
2023/06/28 12:08:23;;;;;;;;;;;;;;;20.95;28.90;95797.19;5001445;28;20015;-71
2023/06/28 12:10:49;;;;;;;;;;;;;;;22.55;27.75;95808.22;4999699;28;19923;-71
2023/06/28 12:13:21;;;;;;;;;;;;;;;21.70;28.57;95812.63;5017236;28;19917;-69
2023/06/28 12:15:46;;;;;;;;;;;;;;;22.04;27.97;95809.09;5022320;28;20048;-70
2023/06/28 12:18:11;;;;;;;;;;;;;;;21.58;28.63;95815.38;5021629;28;20413;-70
2023/06/28 12:20:37;;;;;;;;;;;;;;;21.77;29.37;95801.63;5020202;28;19917;-69
2023/06/28 12:23:04;;;;;;;;;;;;;;;22.32;27.50;95796.50;5020528;28;19920;-69
2023/06/28 12:25:30;;;;;;;;;;;;;;;22.14;27.33;95812.00;5017503;28;19932;-69
2023/06/28 12:28:04;;;;;;;;;;;;;;;22.71;27.02;95803.81;5022163;28;19917;-69
2023/06/28 12:30:29;;;;;;;;;;;;;;;22.43;27.91;95802.06;5020727;28;20568;-72
2023/06/28 12:32:55;;;;;;;;;;;;;;;21.60;29.32;95801.59;4987452;28;20071;-73
2023/06/28 12:35:22;;;;;;;;;;;;;;;22.27;28.48;95805.38;5020820;28;19921;-73
2023/06/28 12:37:52;;;;;;;;;;;;;;;20.83;30.63;95801.78;5002197;28;19947;-72
2023/06/28 12:40:17;;;;;;;;;;;;;;;21.33;30.28;95797.63;5020317;28;20059;-69